Time;durP1;ratioP1;P1;durP2;ratioP2;P2;SDS_P1;SDS_P2;PMS_P1;PMS_P2;Temp;Humidity;BMP_temperature;BMP_pressure;BME280_temperature;BME280_humidity;BME280_pressure;Samples;Min_cycle;Max_cycle;Signal;HPM_P1;HPM_P2
2022/07/14 00:01:40;;;;;;;2.50;0.95;;;;;;;18.59;60.02;102221.28;5053698;27;97696;-34
2022/07/14 00:04:14;;;;;;;4.43;0.85;;;;;;;18.53;60.77;102218.97;5053197;27;103490;-34
2022/07/14 00:06:40;;;;;;;4.30;1.02;;;;;;;18.56;60.44;102226.97;5053704;27;96840;-34
2022/07/14 00:09:05;;;;;;;3.95;1.15;;;;;;;18.58;60.05;102225.00;5053698;27;97433;-33
2022/07/14 00:11:30;;;;;;;4.97;0.77;;;;;;;18.55;60.19;102222.47;5053354;27;98645;-34
2022/07/14 00:13:58;;;;;;;3.25;0.80;;;;;;;18.51;60.33;102206.34;5053255;27;101435;-34
2022/07/14 00:16:24;;;;;;;2.88;0.82;;;;;;;18.61;60.54;102218.41;5052216;27;96801;-34
2022/07/14 00:18:50;;;;;;;3.30;0.50;;;;;;;18.54;60.02;102212.47;5050476;27;100927;-33
2022/07/14 00:21:16;;;;;;;5.43;0.85;;;;;;;18.51;60.85;102209.97;5053224;27;99087;-34
2022/07/14 00:23:43;;;;;;;13.48;1.33;;;;;;;18.52;60.76;102221.81;5052159;27;96654;-34
2022/07/14 00:26:10;;;;;;;2.08;1.00;;;;;;;18.49;60.61;102213.81;5052120;27;96829;-33
2022/07/14 00:28:36;;;;;;;2.67;0.80;;;;;;;18.46;61.20;102221.28;5051533;27;101070;-34
2022/07/14 00:31:20;;;;;;;2.55;0.77;;;;;;;18.41;60.92;102219.88;5051773;27;100902;-33
2022/07/14 00:33:45;;;;;;;3.35;0.50;;;;;;;18.38;60.71;102214.63;5051602;27;96772;-33
2022/07/14 00:36:11;;;;;;;4.60;1.08;;;;;;;18.34;60.49;102202.09;5053638;27;98356;-34
2022/07/14 00:38:36;;;;;;;2.20;0.65;;;;;;;18.41;61.15;102217.13;5053119;27;97920;-33
2022/07/14 00:41:02;;;;;;;2.80;0.80;;;;;;;18.37;60.53;102230.16;5052903;27;97828;-34
2022/07/14 00:43:33;;;;;;;6.68;1.00;;;;;;;18.28;60.85;102227.22;5052663;27;96521;-34
2022/07/14 00:45:58;;;;;;;3.70;0.90;;;;;;;18.25;61.54;102220.97;5053045;27;98830;-34
2022/07/14 00:48:25;;;;;;;4.35;1.02;;;;;;;18.29;61.23;102224.38;5053017;27;97901;-34
2022/07/14 00:50:51;;;;;;;3.85;0.75;;;;;;;18.21;60.81;102218.53;5052984;27;97873;-34
2022/07/14 00:53:17;;;;;;;5.13;1.13;;;;;;;18.16;60.91;102215.25;5052988;27;96629;-34
2022/07/14 00:55:43;;;;;;;6.78;1.10;;;;;;;18.14;61.10;102212.66;5052698;27;96813;-34
2022/07/14 00:58:10;;;;;;;1.92;0.45;;;;;;;18.16;61.62;102223.50;5051397;27;100798;-34
2022/07/14 01:00:36;;;;;;;5.63;0.80;;;;;;;18.08;60.92;102229.53;5051720;27;101023;-33
2022/07/14 01:03:02;;;;;;;2.78;0.68;;;;;;;18.04;61.50;102214.28;5051381;27;96611;-33
2022/07/14 01:05:27;;;;;;;2.63;0.90;;;;;;;18.04;60.84;102220.66;5051538;27;96835;-33
2022/07/14 01:07:53;;;;;;;1.50;0.80;;;;;;;18.09;61.23;102227.66;5052287;27;97943;-33
2022/07/14 01:10:19;;;;;;;4.72;0.95;;;;;;;18.08;61.27;102235.00;5052333;27;99363;-33
2022/07/14 01:12:46;;;;;;;1.77;0.77;;;;;;;18.03;61.35;102234.47;5052070;27;96734;-33
2022/07/14 01:15:14;;;;;;;1.85;1.20;;;;;;;18.01;61.70;102240.06;5051304;27;96872;-33
2022/07/14 01:17:39;;;;;;;1.60;0.63;;;;;;;17.93;62.09;102225.16;5051148;27;101516;-33
2022/07/14 01:20:06;;;;;;;0.88;0.50;;;;;;;17.82;61.59;102215.78;5052729;27;97864;-34
2022/07/14 01:22:31;;;;;;;3.00;0.80;;;;;;;17.82;62.23;102224.03;5051039;27;96572;-34
2022/07/14 01:24:56;;;;;;;1.15;0.68;;;;;;;17.82;62.11;102221.28;5053131;27;96863;-34
2022/07/14 01:27:22;;;;;;;6.32;1.05;;;;;;;17.78;62.00;102218.81;5052335;27;99233;-33
2022/07/14 01:29:47;;;;;;;3.22;0.70;;;;;;;17.73;62.25;102205.47;5052269;27;98250;-33
2022/07/14 01:32:12;;;;;;;3.33;1.00;;;;;;;17.73;61.65;102208.22;5052087;27;96431;-34
2022/07/14 01:34:38;;;;;;;2.38;0.70;;;;;;;17.75;62.00;102219.91;5052228;27;96786;-33
2022/07/14 01:37:03;;;;;;;2.63;0.68;;;;;;;17.76;62.30;102229.91;5052240;27;103757;-33
2022/07/14 01:39:28;;;;;;;2.53;0.65;;;;;;;17.73;62.12;102232.88;5052247;27;97317;-33
2022/07/14 01:41:54;;;;;;;5.20;0.88;;;;;;;17.71;62.32;102239.44;5052445;27;96645;-33
2022/07/14 01:44:19;;;;;;;3.42;0.73;;;;;;;17.63;62.35;102231.75;5052593;27;97026;-33
2022/07/14 01:46:44;;;;;;;1.27;0.60;;;;;;;17.58;63.31;102234.81;5051935;27;99124;-33
2022/07/14 01:49:10;;;;;;;4.22;0.82;;;;;;;17.58;62.65;102233.94;5052548;27;97181;-33
2022/07/14 01:51:35;;;;;;;0.40;0.30;;;;;;;17.53;62.60;102236.13;5052430;27;96480;-33
2022/07/14 01:54:01;;;;;;;5.25;1.38;;;;;;;17.53;62.92;102236.13;5051965;27;96867;-33
2022/07/14 01:56:27;;;;;;;3.60;0.70;;;;;;;17.49;62.81;102234.56;5051449;27;97487;-34
2022/07/14 01:58:52;;;;;;;9.35;0.93;;;;;;;17.51;62.84;102238.94;5051923;27;97278;-34
2022/07/14 02:04:02;;;;;;;0.98;0.50;;;;;;;17.41;62.96;102216.78;5052016;27;96562;-33
2022/07/14 02:06:28;;;;;;;2.17;0.90;;;;;;;17.43;62.70;102219.44;5052019;27;97398;-33
2022/07/14 02:08:55;;;;;;;2.80;0.90;;;;;;;17.44;62.58;102231.25;5050268;27;100713;-33
2022/07/14 02:14:04;;;;;;;2.88;0.70;;;;;;;17.33;63.21;102210.97;5052732;27;96589;-33
2022/07/14 02:16:30;;;;;;;2.45;0.73;;;;;;;17.35;63.25;102222.72;5051748;27;97910;-33
2022/07/14 02:18:57;;;;;;;2.15;0.77;;;;;;;17.31;63.06;102214.81;5051552;27;97893;-34
2022/07/14 02:21:23;;;;;;;3.15;0.82;;;;;;;17.32;63.10;102213.81;5033141;27;97236;-33
2022/07/14 02:23:48;;;;;;;5.68;0.65;;;;;;;17.27;63.26;102211.38;5050412;27;97074;-33
2022/07/14 02:26:14;;;;;;;2.67;0.70;;;;;;;17.24;63.08;102208.84;5052128;27;97276;-33
2022/07/14 02:28:40;;;;;;;2.90;0.80;;;;;;;17.14;63.84;102205.00;5051991;27;97373;-33
2022/07/14 02:31:06;;;;;;;4.93;0.90;;;;;;;17.09;63.98;102205.31;5050266;27;96647;-33
2022/07/14 02:33:32;;;;;;;4.13;0.90;;;;;;;17.06;63.48;102196.41;5050088;27;96819;-33
2022/07/14 02:35:57;;;;;;;2.25;0.77;;;;;;;17.04;64.27;102206.56;5051258;27;99701;-34
2022/07/14 02:38:23;;;;;;;0.77;0.47;;;;;;;16.90;64.12;102178.28;5051983;27;97128;-33
2022/07/14 02:40:48;;;;;;;1.45;0.73;;;;;;;16.93;64.73;102186.28;5051360;27;96561;-33
2022/07/14 02:43:13;;;;;;;2.65;0.60;;;;;;;16.85;64.62;102183.19;5053872;27;98053;-33
2022/07/14 02:45:39;;;;;;;2.30;0.77;;;;;;;16.82;64.64;102180.63;5052520;27;114778;-33
2022/07/14 02:48:07;;;;;;;3.95;0.75;;;;;;;16.80;64.86;102198.16;5054686;27;97807;-34
2022/07/14 02:50:33;;;;;;;1.73;0.80;;;;;;;16.78;64.93;102195.50;5055014;27;96525;-33
2022/07/14 02:52:59;;;;;;;3.33;1.17;;;;;;;16.78;64.73;102203.72;5054953;27;96815;-33
2022/07/14 02:55:24;;;;;;;2.15;0.57;;;;;;;16.72;64.92;102190.41;5054781;27;97376;-33
2022/07/14 02:57:50;;;;;;;2.40;0.80;;;;;;;16.67;64.92;102189.84;5053206;27;99337;-33
2022/07/14 03:00:15;;;;;;;4.22;0.80;;;;;;;16.66;64.89;102188.97;5054568;27;96607;-33
2022/07/14 03:02:41;;;;;;;3.95;1.05;;;;;;;16.64;64.74;102192.78;5055246;27;96596;-33
2022/07/14 03:05:06;;;;;;;6.55;0.88;;;;;;;16.67;64.81;102198.94;5054022;27;117609;-34
2022/07/14 03:07:32;;;;;;;3.92;0.70;;;;;;;16.62;65.49;102197.47;5054506;27;97919;-33
2022/07/14 03:09:57;;;;;;;3.58;0.75;;;;;;;16.53;65.70;102179.81;5053924;27;96576;-33
2022/07/14 03:12:23;;;;;;;1.95;0.73;;;;;;;16.53;66.32;102196.22;5054138;27;96786;-33
2022/07/14 03:14:48;;;;;;;3.78;0.85;;;;;;;16.43;66.13;102186.84;5054530;27;97934;-33
2022/07/14 03:17:14;;;;;;;0.80;0.52;;;;;;;16.43;66.00;102190.47;5054138;27;97702;-33
2022/07/14 03:19:40;;;;;;;3.75;1.10;;;;;;;16.39;66.10;102186.16;5053046;27;96602;-33
2022/07/14 03:22:06;;;;;;;4.22;0.77;;;;;;;16.40;66.33;102189.78;5054834;27;96770;-33
2022/07/14 03:24:31;;;;;;;1.77;0.52;;;;;;;16.35;65.88;102177.28;5054484;27;97322;-33
2022/07/14 03:26:57;;;;;;;1.15;0.63;;;;;;;16.36;65.68;102180.91;5054335;27;99680;-33
2022/07/14 03:29:22;;;;;;;4.32;0.88;;;;;;;16.34;65.95;102177.38;5054491;27;96538;-33
2022/07/14 03:31:48;;;;;;;2.38;0.60;;;;;;;16.29;66.19;102168.59;5053946;27;96632;-34
2022/07/14 03:34:14;;;;;;;0.90;0.63;;;;;;;16.28;66.41;102180.50;5053217;27;99306;-33
2022/07/14 03:36:39;;;;;;;2.28;1.00;;;;;;;16.23;66.99;102171.72;5054349;27;97794;-33
2022/07/14 03:39:04;;;;;;;2.72;0.65;;;;;;;16.20;66.84;102171.94;5054045;27;96607;-33
2022/07/14 03:41:30;;;;;;;1.52;0.65;;;;;;;16.18;67.40;102171.13;5054273;27;96766;-33
2022/07/14 03:43:55;;;;;;;1.05;0.50;;;;;;;16.18;66.83;102169.28;5053541;27;114667;-33
2022/07/14 03:46:20;;;;;;;5.40;1.27;;;;;;;16.12;66.93;102156.03;5053938;27;97813;-34
2022/07/14 03:48:46;;;;;;;1.13;0.75;;;;;;;16.13;67.21;102150.44;5053675;27;105277;-33
2022/07/14 03:51:11;;;;;;;2.40;0.90;;;;;;;16.18;67.16;102162.94;5054424;27;96825;-33
2022/07/14 03:53:37;;;;;;;6.07;1.10;;;;;;;16.21;66.17;102171.84;5052535;27;99229;-33
2022/07/14 03:56:04;;;;;;;2.40;0.68;;;;;;;16.24;66.28;102177.09;5053575;27;97256;-33
2022/07/14 03:58:29;;;;;;;1.73;0.80;;;;;;;16.19;66.18;102162.84;5051849;27;97743;-33
2022/07/14 04:00:55;;;;;;;2.50;0.85;;;;;;;16.23;66.83;102172.63;5053907;27;97001;-33
2022/07/14 04:03:20;;;;;;;1.40;0.82;;;;;;;16.25;66.09;102169.78;5053660;27;97388;-33
2022/07/14 04:05:48;;;;;;;5.28;0.68;;;;;;;16.34;66.28;102181.00;5053964;27;97231;-33
2022/07/14 04:08:14;;;;;;;4.80;1.00;;;;;;;16.34;66.17;102180.13;5053816;27;96547;-33
2022/07/14 04:10:39;;;;;;;6.25;1.10;;;;;;;16.34;66.08;102181.00;5053438;27;96688;-32
2022/07/14 04:13:05;;;;;;;6.45;1.25;;;;;;;16.28;66.09;102165.00;5053685;27;97907;-33
2022/07/14 04:15:30;;;;;;;4.32;0.85;;;;;;;16.33;65.88;102172.91;5053553;27;97434;-33
2022/07/14 04:17:57;;;;;;;3.05;0.80;;;;;;;16.36;66.29;102180.91;5053457;27;96494;-33
2022/07/14 04:20:23;;;;;;;1.85;0.75;;;;;;;16.35;65.87;102187.34;5052001;27;96733;-33
2022/07/14 04:22:49;;;;;;;2.80;1.10;;;;;;;16.31;66.39;102173.00;5051482;27;101485;-33
2022/07/14 04:25:15;;;;;;;3.65;0.88;;;;;;;16.32;66.15;102173.88;5053048;27;97897;-33
2022/07/14 04:27:41;;;;;;;1.33;0.60;;;;;;;16.32;66.39;102172.00;5053566;27;96610;-33
2022/07/14 04:30:07;;;;;;;3.05;0.93;;;;;;;16.41;66.03;102180.59;5053153;27;96801;-34
2022/07/14 04:32:33;;;;;;;4.93;1.15;;;;;;;16.34;66.13;102175.53;5051663;27;101604;-33
2022/07/14 04:34:59;;;;;;;4.35;0.75;;;;;;;16.36;67.14;102186.38;5051237;27;100233;-33
2022/07/14 04:37:24;;;;;;;0.95;0.73;;;;;;;16.37;66.05;102185.38;5053368;27;96520;-33
2022/07/14 04:39:49;;;;;;;2.10;1.10;;;;;;;16.38;66.08;102172.63;5053634;27;96750;-33
2022/07/14 04:42:14;;;;;;;2.15;0.90;;;;;;;16.37;66.57;102168.09;5053171;27;97205;-33
2022/07/14 04:44:41;;;;;;;3.80;1.05;;;;;;;16.33;65.84;102172.91;5052577;27;107449;-33
2022/07/14 04:47:07;;;;;;;2.25;1.00;;;;;;;16.37;65.68;102177.19;5052514;27;96543;-33
2022/07/14 04:52:17;;;;;;;2.00;0.98;;;;;;;16.34;66.50;102159.13;5053437;27;96991;-33
2022/07/14 04:54:44;;;;;;;2.55;0.85;;;;;;;16.42;65.81;102166.84;5051400;27;100882;-33
2022/07/14 04:57:10;;;;;;;3.92;1.00;;;;;;;16.40;66.16;102157.84;5052810;27;96740;-33
2022/07/14 04:59:35;;;;;;;1.63;0.70;;;;;;;16.45;65.96;102165.75;5052865;27;96682;-33
2022/07/14 05:02:00;;;;;;;1.42;0.85;;;;;;;16.41;65.63;102156.00;5052820;27;98091;-33
2022/07/14 05:04:27;;;;;;;4.28;1.00;;;;;;;16.52;66.42;102178.06;5051548;27;99046;-33
2022/07/14 05:06:52;;;;;;;2.58;0.82;;;;;;;16.44;66.02;102159.38;5050977;27;96513;-33
2022/07/14 05:09:18;;;;;;;3.00;1.17;;;;;;;16.49;66.52;102167.28;5052890;27;96744;-33
2022/07/14 05:11:45;;;;;;;4.13;1.10;;;;;;;16.58;65.39;102176.78;5049550;27;101057;-33
2022/07/14 05:14:10;;;;;;;0.68;0.57;;;;;;;16.54;65.34;102166.03;5051071;27;101409;-33
2022/07/14 05:16:36;;;;;;;9.50;1.48;;;;;;;16.63;65.30;102180.06;5051428;27;96694;-33
2022/07/14 05:19:01;;;;;;;2.53;0.98;;;;;;;16.67;65.07;102181.63;5051313;27;96844;-33
2022/07/14 05:21:27;;;;;;;3.00;0.80;;;;;;;16.70;65.25;102182.28;5052736;27;97448;-33
2022/07/14 05:23:53;;;;;;;5.57;1.10;;;;;;;16.71;64.95;102183.19;5052450;27;97805;-33
2022/07/14 05:26:18;;;;;;;2.80;1.00;;;;;;;16.75;64.87;102179.25;5052619;27;96471;-34
2022/07/14 05:28:44;;;;;;;1.85;0.55;;;;;;;16.83;64.66;102190.63;5051374;27;96835;-34
2022/07/14 05:31:09;;;;;;;5.57;1.17;;;;;;;16.86;64.65;102181.31;5052500;27;97933;-33
2022/07/14 05:33:35;;;;;;;2.47;0.80;;;;;;;16.89;64.45;102173.78;5052396;27;97846;-33
2022/07/14 05:36:01;;;;;;;2.50;0.65;;;;;;;17.04;64.41;102195.63;5048353;27;98482;-34
2022/07/14 05:38:27;;;;;;;4.43;0.82;;;;;;;17.07;64.23;102184.50;5049575;27;97137;-33
2022/07/14 05:40:53;;;;;;;1.70;0.73;;;;;;;17.19;64.02;102191.88;5051582;27;98079;-34
2022/07/14 05:43:19;;;;;;;1.80;0.73;;;;;;;17.17;63.98;102191.09;5050460;27;100939;-33
2022/07/14 05:45:44;;;;;;;2.83;0.50;;;;;;;17.26;63.67;102190.47;5051873;27;96545;-33
2022/07/14 05:48:10;;;;;;;3.55;0.82;;;;;;;17.31;63.46;102188.28;5052105;27;96776;-33
2022/07/14 05:50:35;;;;;;;3.25;1.00;;;;;;;17.47;63.17;102200.91;5051922;27;97823;-33
2022/07/14 05:53:01;;;;;;;1.13;0.75;;;;;;;17.52;63.65;102191.41;5052508;27;97096;-33
2022/07/14 05:55:26;;;;;;;3.03;0.73;;;;;;;17.53;63.39;102181.31;5052256;27;96586;-34
2022/07/14 05:57:51;;;;;;;3.88;0.90;;;;;;;17.64;62.56;102192.41;5052090;27;96834;-33
2022/07/14 06:00:17;;;;;;;4.82;1.00;;;;;;;17.66;62.95;102187.69;5051107;27;104746;-33
2022/07/14 06:02:43;;;;;;;0.68;0.38;;;;;;;17.66;63.08;102187.69;5051971;27;97267;-33
2022/07/14 06:05:10;;;;;;;3.85;0.70;;;;;;;17.82;63.75;102195.75;5050545;27;96571;-33
2022/07/14 06:07:35;;;;;;;4.32;0.98;;;;;;;17.88;63.04;102199.94;5050570;27;96805;-33
2022/07/14 06:10:01;;;;;;;1.90;0.40;;;;;;;17.93;62.23;102189.50;5051978;27;98017;-34
2022/07/14 06:12:27;;;;;;;3.90;1.10;;;;;;;18.07;63.07;102185.75;5050924;27;98892;-33
2022/07/14 06:14:52;;;;;;;3.28;0.82;;;;;;;18.21;62.62;102181.06;5051631;27;96601;-33
2022/07/14 06:17:18;;;;;;;1.17;0.60;;;;;;;18.22;62.10;102179.19;5053622;27;96905;-33
2022/07/14 06:19:43;;;;;;;2.05;0.75;;;;;;;18.13;62.34;102177.09;5055239;27;99322;-33
2022/07/14 06:22:08;;;;;;;4.18;0.88;;;;;;;18.06;62.53;102179.41;5055361;27;97815;-33
2022/07/14 06:24:37;;;;;;;2.13;0.65;;;;;;;18.02;63.42;102186.13;5054702;27;96459;-33
2022/07/14 06:27:14;;;;;;;3.20;0.90;;;;;;;18.09;62.75;102190.19;5053867;27;96838;-33
2022/07/14 06:29:40;;;;;;;3.53;0.77;;;;;;;18.19;62.58;102191.25;5054987;27;99609;-33
2022/07/14 06:32:05;;;;;;;2.15;0.88;;;;;;;18.29;62.10;102176.88;5055204;27;97765;-33
2022/07/14 06:34:30;;;;;;;0.85;0.63;;;;;;;18.47;62.25;102194.72;5055451;27;96632;-33
2022/07/14 06:36:56;;;;;;;1.83;1.30;;;;;;;18.58;62.50;102194.78;5055283;27;96866;-33
2022/07/14 06:39:21;;;;;;;4.82;1.00;;;;;;;18.64;62.19;102185.25;5054543;27;108196;-33
2022/07/14 06:41:47;;;;;;;3.70;1.17;;;;;;;18.78;61.81;102186.97;5073850;27;98043;-33
2022/07/14 06:44:13;;;;;;;4.75;1.05;;;;;;;18.85;61.42;102183.69;5075628;27;96517;-33
2022/07/14 06:46:38;;;;;;;2.67;0.73;;;;;;;18.93;61.41;102180.34;5074121;27;96821;-33
2022/07/14 06:49:04;;;;;;;3.67;0.93;;;;;;;19.01;61.31;102166.91;5069344;27;105388;-33
2022/07/14 06:51:29;;;;;;;2.63;0.75;;;;;;;19.10;61.41;102168.94;5054971;27;97859;-33
2022/07/14 06:53:55;;;;;;;2.22;0.75;;;;;;;19.17;60.76;102163.00;5054689;27;96678;-33
2022/07/14 06:56:21;;;;;;;3.10;0.85;;;;;;;19.25;61.15;102172.38;5053456;27;96882;-33
2022/07/14 06:58:46;;;;;;;4.05;0.85;;;;;;;19.32;60.55;102172.78;5054736;27;97430;-34
2022/07/14 07:01:11;;;;;;;1.38;0.60;;;;;;;19.29;60.66;102165.66;5071820;27;97776;-33
2022/07/14 07:03:37;;;;;;;1.45;0.90;;;;;;;19.23;61.06;102171.59;5075329;27;97129;-33
2022/07/14 07:08:46;;;;;;;2.63;0.60;;;;;;;19.12;61.16;102154.22;5075281;27;97136;-33
2022/07/14 07:11:11;;;;;;;3.45;1.05;;;;;;;19.09;61.82;102153.47;5074477;27;97690;-33
2022/07/14 07:13:37;;;;;;;3.65;1.02;;;;;;;19.17;61.67;102146.50;5071228;27;96801;-33
2022/07/14 07:16:06;;;;;;;3.35;1.05;;;;;;;19.16;61.08;102156.59;5054145;27;96844;-33
2022/07/14 07:18:32;;;;;;;1.98;0.80;;;;;;;19.16;61.07;102156.59;5053023;27;101452;-33
2022/07/14 07:20:58;;;;;;;2.50;1.00;;;;;;;19.07;61.07;102141.72;5052513;27;100716;-33
2022/07/14 07:23:23;;;;;;;7.13;1.15;;;;;;;19.07;60.91;102149.97;5054940;27;96423;-33
2022/07/14 07:25:48;;;;;;;3.80;0.63;;;;;;;19.34;61.83;102150.69;5053314;27;96833;-33
2022/07/14 07:28:17;;;;;;;1.92;0.77;;;;;;;19.38;61.61;102135.69;5059517;27;100759;-33
2022/07/14 07:30:42;;;;;;;2.28;0.82;;;;;;;19.58;61.10;102150.63;5053298;27;101178;-33
2022/07/14 07:33:08;;;;;;;4.90;1.20;;;;;;;19.81;60.69;102149.72;5054177;27;96489;-34
2022/07/14 07:35:33;;;;;;;3.97;1.00;;;;;;;20.05;60.25;102160.63;5054039;27;96872;-34
2022/07/14 07:37:59;;;;;;;2.05;0.95;;;;;;;20.09;60.04;102150.22;5052332;27;100929;-33
2022/07/14 07:40:25;;;;;;;3.63;0.75;;;;;;;20.19;60.49;102158.59;5053756;27;99318;-33
2022/07/14 07:42:50;;;;;;;5.60;0.85;;;;;;;20.20;59.84;102139.22;5053904;27;96566;-33
2022/07/14 07:45:15;;;;;;;3.42;1.25;;;;;;;20.25;59.61;102142.47;5054246;27;96792;-33
2022/07/14 07:47:41;;;;;;;3.55;0.60;;;;;;;20.23;59.61;102146.34;5054049;27;97866;-33
2022/07/14 07:50:07;;;;;;;5.90;0.73;;;;;;;20.17;59.34;102133.97;5053645;27;99083;-33
2022/07/14 07:52:32;;;;;;;1.85;0.47;;;;;;;20.34;59.04;102140.84;5054270;27;96405;-33
2022/07/14 07:54:58;;;;;;;3.90;0.70;;;;;;;20.25;58.80;102136.97;5054238;27;96776;-33
2022/07/14 07:57:23;;;;;;;3.38;0.68;;;;;;;20.36;58.69;102144.34;5053884;27;97984;-33
2022/07/14 07:59:51;;;;;;;9.65;0.93;;;;;;;20.62;58.42;102152.34;5053496;27;97771;-33
2022/07/14 08:02:17;;;;;;;1.10;0.57;;;;;;;20.65;57.44;102146.59;5053421;27;96615;-33
2022/07/14 08:04:43;;;;;;;4.00;0.98;;;;;;;20.71;58.14;102138.69;5052214;27;96912;-33
2022/07/14 08:07:08;;;;;;;3.92;0.50;;;;;;;20.84;57.12;102134.91;5054003;27;97317;-34
2022/07/14 08:09:34;;;;;;;1.05;0.73;;;;;;;20.88;57.37;102145.53;5053358;27;98728;-33
2022/07/14 08:11:59;;;;;;;0.77;0.43;;;;;;;20.86;57.31;102133.78;5053604;27;96500;-33
2022/07/14 08:17:09;;;;;;;3.22;0.70;;;;;;;21.32;56.21;102146.34;5053769;27;97120;-34
2022/07/14 08:19:35;;;;;;;1.75;0.45;;;;;;;21.51;55.86;102145.66;5053745;27;97795;-33
2022/07/14 08:22:00;;;;;;;2.13;0.65;;;;;;;21.70;55.00;102141.28;5052271;27;96555;-34
2022/07/14 08:24:26;;;;;;;2.25;0.73;;;;;;;21.88;54.06;102141.53;5053637;27;96787;-33
2022/07/14 08:26:52;;;;;;;1.15;0.52;;;;;;;22.10;54.21;102137.72;5052538;27;100027;-34
2022/07/14 08:29:17;;;;;;;2.00;0.40;;;;;;;22.12;53.53;102130.16;5052200;27;97398;-34
2022/07/14 08:31:43;;;;;;;1.25;0.50;;;;;;;22.04;52.94;102131.72;5053457;27;96505;-33
2022/07/14 08:34:08;;;;;;;2.67;0.52;;;;;;;21.98;53.46;102134.19;5053367;27;97049;-33
2022/07/14 08:36:34;;;;;;;3.53;0.68;;;;;;;22.19;52.81;102129.50;5053031;27;97941;-34
2022/07/14 08:39:01;;;;;;;2.10;0.40;;;;;;;22.35;52.72;102111.53;5053079;27;97802;-33
2022/07/14 08:41:27;;;;;;;3.20;0.65;;;;;;;22.63;52.74;102119.03;5052490;27;96527;-33
2022/07/14 08:43:53;;;;;;;2.47;0.57;;;;;;;22.84;52.38;102129.97;5053356;27;96925;-33
2022/07/14 08:46:19;;;;;;;0.57;0.40;;;;;;;22.92;51.00;102117.34;5053375;27;97185;-34
2022/07/14 08:48:47;;;;;;;4.45;0.55;;;;;;;23.10;48.81;102123.94;5051473;27;101255;-33
2022/07/14 08:51:12;;;;;;;1.73;0.60;;;;;;;23.04;51.27;102113.44;5051150;27;96963;-34
2022/07/14 08:53:38;;;;;;;0.93;0.52;;;;;;;23.18;49.92;102123.19;5053067;27;96898;-34
2022/07/14 08:56:04;;;;;;;1.27;0.65;;;;;;;23.28;49.89;102119.38;5052980;27;97955;-34
2022/07/14 08:58:29;;;;;;;1.15;0.55;;;;;;;23.42;46.68;102119.97;5052909;27;97911;-34
2022/07/14 09:00:55;;;;;;;1.10;0.40;;;;;;;23.53;48.70;102114.28;5052850;27;96635;-34
2022/07/14 09:03:20;;;;;;;1.27;0.60;;;;;;;23.73;47.72;102118.75;5052820;27;96838;-34
2022/07/14 09:05:45;;;;;;;2.15;0.68;;;;;;;23.90;47.97;102130.09;5053069;27;97310;-34
2022/07/14 09:08:13;;;;;;;3.67;0.63;;;;;;;23.96;46.92;102123.97;5052941;27;99746;-34
2022/07/14 09:10:41;;;;;;;5.68;0.70;;;;;;;24.02;47.43;102126.09;5051484;27;96582;-33
2022/07/14 09:13:18;;;;;;;2.50;0.90;;;;;;;24.10;46.34;102126.22;5051488;27;96571;-33
2022/07/14 09:15:45;;;;;;;5.45;0.80;;;;;;;24.24;46.45;102119.31;5050448;27;101659;-34
2022/07/14 09:18:25;;;;;;;1.20;0.57;;;;;;;24.42;46.48;102118.50;5051138;27;100824;-34
2022/07/14 09:20:52;;;;;;;1.73;0.75;;;;;;;24.52;47.46;102128.50;5052608;27;96697;-34
2022/07/14 09:23:31;;;;;;;3.15;0.90;;;;;;;24.52;47.24;102130.41;5052419;27;96843;-33
2022/07/14 09:26:15;;;;;;;2.78;0.88;;;;;;;24.52;46.04;102125.75;5052617;27;97865;-33
2022/07/14 09:28:42;;;;;;;2.30;0.82;;;;;;;24.65;47.28;102122.63;5069766;27;100709;-33
2022/07/14 09:31:28;;;;;;;2.72;0.85;;;;;;;24.87;47.02;102121.28;5071338;27;96667;-33
2022/07/14 09:34:22;;;;;;;7.53;0.90;;;;;;;24.99;46.67;102117.25;5071522;27;96926;-33
2022/07/14 09:36:48;;;;;;;5.95;0.80;;;;;;;25.13;46.48;102113.06;5071338;27;100914;-33
2022/07/14 09:39:15;;;;;;;4.88;1.23;;;;;;;25.31;44.87;102113.06;5071255;27;101055;-33
2022/07/14 09:41:54;;;;;;;3.30;0.75;;;;;;;25.39;44.13;102113.16;5072309;27;96666;-33
2022/07/14 09:44:21;;;;;;;3.20;0.82;;;;;;;25.50;45.26;102125.88;5071329;27;96826;-33
2022/07/14 09:46:54;;;;;;;1.55;0.57;;;;;;;25.48;44.63;102116.88;5070791;27;100923;-33
2022/07/14 09:49:25;;;;;;;4.30;1.08;;;;;;;25.53;44.91;102108.03;5071043;27;100806;-33
2022/07/14 09:51:59;;;;;;;1.95;0.70;;;;;;;25.60;42.96;102131.34;5074243;27;96709;-33
2022/07/14 09:54:36;;;;;;;1.95;0.90;;;;;;;25.75;44.03;102131.63;5074791;27;97004;-33
2022/07/14 09:57:02;;;;;;;2.65;0.70;;;;;;;25.79;44.22;102131.13;5076171;27;97372;-33
2022/07/14 09:59:28;;;;;;;5.25;0.70;;;;;;;25.84;41.99;102131.50;5074533;27;100894;-33
2022/07/14 10:01:53;;;;;;;2.35;0.65;;;;;;;25.98;42.75;102126.41;5076397;27;96563;-34
2022/07/14 10:04:20;;;;;;;1.10;0.52;;;;;;;25.93;42.49;102110.25;5076324;27;96801;-34
2022/07/14 10:06:46;;;;;;;4.50;0.82;;;;;;;25.68;41.72;102123.06;5074108;27;101043;-34
2022/07/14 10:09:12;;;;;;;2.72;0.50;;;;;;;25.72;41.67;102116.16;5074558;27;100545;-34
2022/07/14 10:11:38;;;;;;;1.58;0.55;;;;;;;26.00;42.75;102118.78;5075472;27;96808;-33
2022/07/14 10:14:04;;;;;;;1.40;0.70;;;;;;;26.16;40.96;102130.00;5074539;27;96913;-34
2022/07/14 10:16:33;;;;;;;4.53;1.25;;;;;;;26.06;40.63;102113.44;5075589;27;99404;-34
2022/07/14 10:19:00;;;;;;;2.45;0.68;;;;;;;26.01;41.12;102129.75;5072198;27;100864;-34
2022/07/14 10:21:26;;;;;;;4.88;1.27;;;;;;;25.87;40.95;102129.47;5058528;27;96666;-34
2022/07/14 10:23:54;;;;;;;2.15;0.82;;;;;;;25.72;42.45;102121.72;5074869;27;96929;-34
2022/07/14 10:26:19;;;;;;;3.40;0.85;;;;;;;25.75;39.71;102112.19;5072354;27;101497;-34
2022/07/14 10:28:45;;;;;;;3.67;0.75;;;;;;;25.47;41.97;102126.22;5069654;27;101265;-34
2022/07/14 10:32:04;;;;;;;2.72;0.90;;;;;;;25.50;41.61;102119.47;5066408;27;96558;-33
2022/07/14 10:34:44;;;;;;;1.92;0.63;;;;;;;25.70;41.03;102125.69;5020186;27;97049;-34
2022/07/14 10:37:30;;;;;;;1.33;0.60;;;;;;;26.02;40.86;102119.50;5073948;27;100922;-34
2022/07/14 10:40:15;;;;;;;3.15;0.75;;;;;;;26.39;40.02;102119.16;5075787;27;97883;-34
2022/07/14 10:43:00;;;;;;;1.05;0.60;;;;;;;26.51;39.70;102124.44;5075747;27;96522;-34
2022/07/14 10:45:26;;;;;;;2.47;0.63;;;;;;;26.53;40.52;102112.09;5074270;27;96771;-34
2022/07/14 10:47:53;;;;;;;3.03;0.65;;;;;;;26.70;39.77;102113.03;5075259;27;99301;-34
2022/07/14 10:50:28;;;;;;;3.72;0.70;;;;;;;26.82;38.94;102127.50;5074222;27;100750;-34
2022/07/14 10:53:01;;;;;;;1.70;0.70;;;;;;;26.89;38.45;102112.72;5074139;27;96865;-34
2022/07/14 10:55:29;;;;;;;2.25;0.50;;;;;;;26.85;39.40;102099.34;5073867;27;96792;-34
2022/07/14 10:58:00;;;;;;;2.40;0.65;;;;;;;26.69;38.41;102123.28;5074937;27;98011;-34
2022/07/14 11:00:43;;;;;;;5.82;0.75;;;;;;;26.28;40.29;102114.75;5075169;27;97957;-34
2022/07/14 11:03:26;;;;;;;3.63;0.82;;;;;;;26.04;40.37;102117.44;5074729;27;96475;-34
2022/07/14 11:08:32;;;;;;;2.70;0.80;;;;;;;25.73;41.43;102101.25;5072693;27;97788;-34
2022/07/14 11:10:59;;;;;;;2.05;0.70;;;;;;;25.84;41.30;102109.31;5072667;27;100800;-33
2022/07/14 11:13:25;;;;;;;3.45;0.70;;;;;;;26.19;40.81;102109.34;5073582;27;96626;-34
2022/07/14 11:15:51;;;;;;;1.73;0.90;;;;;;;26.30;40.45;102103.50;5073876;27;96817;-34
2022/07/14 11:18:29;;;;;;;2.00;0.70;;;;;;;26.31;40.47;102102.44;5073461;27;101007;-34
2022/07/14 11:21:11;;;;;;;1.15;0.50;;;;;;;26.53;39.61;102109.31;5073353;27;100783;-34
2022/07/14 11:24:02;;;;;;;2.83;0.60;;;;;;;26.73;39.15;102115.47;5073016;27;97190;-34
2022/07/14 11:26:41;;;;;;;2.05;0.70;;;;;;;26.89;38.38;102101.59;5073358;27;96799;-34
2022/07/14 11:29:08;;;;;;;5.30;1.20;;;;;;;26.72;40.11;102108.19;5073239;27;101020;-34
2022/07/14 11:31:47;;;;;;;2.78;0.70;;;;;;;26.69;39.66;102101.03;5073143;27;100765;-34
2022/07/14 11:37:06;;;;;;;2.30;0.80;;;;;;;26.55;40.96;102101.69;5074831;27;96754;-34
2022/07/14 11:39:35;;;;;;;3.40;1.10;;;;;;;26.62;40.03;102116.66;5073070;27;97375;-34
2022/07/14 11:42:09;;;;;;;2.28;0.93;;;;;;;26.68;38.63;102098.44;5074702;27;99302;-34
2022/07/14 11:44:40;;;;;;;3.70;0.88;;;;;;;26.87;38.84;102100.03;5073135;27;96645;-34